East Hazel Crest, Illinois
Current Conditions -  °F | °C
As of 4:35 PM on Friday 19 Dec 2014 (Local Time) from KIGQ Reporting Station
Overcast Overcast  
Wind Chill: 27°   Ceiling: 2500
Heat Index: 32°   Visibility: 10mi
Dew Point: 26°   Wind: 5mph
Humidity: 78%   Direction: 210°SSW
Pressure: 30.32"   Gusts: NA
Location:  41.5748°N, 87.6813°W
Report Text: KIGQ 192235Z AUTO 21004KT 10SM OVC025 00/M03 A3032 RMK AO2 T10011035
Loading
Personal Weather Stations






























Interactive Weather Map New forecast layout! Learn more

10-Day Weather Forecast

Advertisements
Track Severe Weather on mobile